Time;durP1;ratioP1;P1;durP2;ratioP2;P2;SDS_P1;SDS_P2;PMS_P1;PMS_P2;Temp;Humidity;BMP_temperature;BMP_pressure;BME280_temperature;BME280_humidity;BME280_pressure;Samples;Min_cycle;Max_cycle;Signal;HPM_P1;HPM_P2
2023/09/19 00:00:33;;;;;;;;;;;19.30;86.70;;;;;;5076996;28;20039;-81
2023/09/19 00:03:00;;;;;;;;;;;19.30;86.70;;;;;;5052083;28;20621;-81
2023/09/19 00:05:28;;;;;;;;;;;19.20;86.70;;;;;;5067476;28;20003;-79
2023/09/19 00:07:56;;;;;;;;;;;19.20;86.70;;;;;;5053457;28;20511;-80
2023/09/19 00:10:24;;;;;;;;;;;19.20;86.80;;;;;;5066203;28;20043;-80
2023/09/19 00:12:52;;;;;;;;;;;19.20;86.90;;;;;;5064130;28;19997;-80
2023/09/19 00:15:20;;;;;;;;;;;19.20;86.90;;;;;;5063340;28;20127;-79
2023/09/19 00:17:47;;;;;;;;;;;19.20;86.90;;;;;;5043578;28;19982;-81
2023/09/19 00:20:15;;;;;;;;;;;19.20;87.00;;;;;;5062046;28;20010;-79
2023/09/19 00:22:44;;;;;;;;;;;19.10;87.10;;;;;;5063401;28;19951;-80
2023/09/19 00:25:11;;;;;;;;;;;19.10;87.00;;;;;;5034343;28;20025;-80
2023/09/19 00:27:41;;;;;;;;;;;19.10;87.10;;;;;;5069709;28;19934;-81
2023/09/19 00:30:14;;;;;;;;;;;19.10;87.20;;;;;;5067414;28;19976;-83
2023/09/19 00:32:41;;;;;;;;;;;19.10;87.20;;;;;;5068480;28;21236;-80
2023/09/19 00:35:08;;;;;;;;;;;19.00;87.30;;;;;;5068838;28;20879;-80
2023/09/19 00:37:35;;;;;;;;;;;19.10;87.30;;;;;;5065260;28;20160;-80
2023/09/19 00:40:04;;;;;;;;;;;19.10;87.40;;;;;;5042598;28;20222;-80
2023/09/19 00:42:31;;;;;;;;;;;19.10;87.40;;;;;;5066649;28;20327;-80
2023/09/19 00:44:58;;;;;;;;;;;19.00;87.40;;;;;;5066959;28;20194;-80
2023/09/19 00:47:25;;;;;;;;;;;19.00;87.40;;;;;;5065050;28;20109;-80
2023/09/19 00:49:52;;;;;;;;;;;19.00;87.50;;;;;;5068011;28;20121;-81
2023/09/19 00:52:20;;;;;;;;;;;19.00;87.40;;;;;;5077892;28;25112;-82
2023/09/19 00:54:47;;;;;;;;;;;19.00;87.50;;;;;;5067565;28;19990;-82
2023/09/19 00:57:19;;;;;;;;;;;19.00;87.50;;;;;;5072069;28;20136;-80
2023/09/19 00:59:45;;;;;;;;;;;19.00;87.50;;;;;;5049931;28;25187;-80
2023/09/19 01:02:14;;;;;;;;;;;19.00;87.60;;;;;;5067289;28;20239;-81
2023/09/19 01:04:41;;;;;;;;;;;19.00;87.60;;;;;;5049205;28;20578;-80
2023/09/19 01:07:08;;;;;;;;;;;18.90;87.50;;;;;;5066733;28;25076;-81
2023/09/19 01:09:35;;;;;;;;;;;18.90;87.50;;;;;;5082503;28;19970;-82
2023/09/19 01:12:04;;;;;;;;;;;18.90;87.50;;;;;;5063216;28;20217;-81
2023/09/19 01:14:37;;;;;;;;;;;18.90;87.60;;;;;;5069746;28;19934;-82
2023/09/19 01:17:07;;;;;;;;;;;18.90;87.60;;;;;;5072284;28;20699;-80
2023/09/19 01:19:44;;;;;;;;;;;18.90;87.70;;;;;;5071388;28;20697;-81
2023/09/19 01:22:21;;;;;;;;;;;18.80;87.60;;;;;;5048056;28;20140;-81
2023/09/19 01:25:07;;;;;;;;;;;18.80;87.70;;;;;;5049379;28;19974;-82
2023/09/19 01:27:49;;;;;;;;;;;18.80;87.70;;;;;;5062004;28;19970;-80
2023/09/19 01:30:27;;;;;;;;;;;18.90;87.80;;;;;;5066839;28;20350;-81
2023/09/19 01:32:54;;;;;;;;;;;18.80;87.70;;;;;;5047954;28;19966;-78
2023/09/19 01:35:21;;;;;;;;;;;18.80;87.80;;;;;;5051210;28;20212;-81
2023/09/19 01:37:47;;;;;;;;;;;18.80;87.70;;;;;;5069799;28;20443;-82
2023/09/19 01:40:17;;;;;;;;;;;18.80;87.70;;;;;;5068357;28;25075;-80
2023/09/19 01:42:46;;;;;;;;;;;18.80;87.70;;;;;;5036330;28;19967;-80
2023/09/19 01:45:18;;;;;;;;;;;18.80;87.70;;;;;;5068288;28;20138;-81
2023/09/19 01:47:50;;;;;;;;;;;18.80;87.80;;;;;;5069530;28;25176;-81
2023/09/19 01:50:23;;;;;;;;;;;18.80;87.80;;;;;;5064159;28;20644;-82
2023/09/19 01:52:50;;;;;;;;;;;18.80;87.80;;;;;;5067346;28;20135;-80
2023/09/19 01:55:18;;;;;;;;;;;18.70;87.80;;;;;;5068946;28;19971;-81
2023/09/19 01:57:50;;;;;;;;;;;18.70;87.80;;;;;;5062738;28;20249;-82
2023/09/19 02:00:21;;;;;;;;;;;18.70;87.80;;;;;;5047497;28;25072;-80
2023/09/19 02:02:50;;;;;;;;;;;18.70;87.80;;;;;;5068297;28;20062;-82
2023/09/19 02:05:23;;;;;;;;;;;18.70;87.80;;;;;;5067098;28;19963;-84
2023/09/19 02:07:50;;;;;;;;;;;18.70;87.80;;;;;;5066742;28;25101;-80
2023/09/19 02:10:17;;;;;;;;;;;18.70;87.80;;;;;;5068465;28;19976;-80
2023/09/19 02:12:43;;;;;;;;;;;18.70;87.90;;;;;;5068739;28;20981;-80
2023/09/19 02:15:12;;;;;;;;;;;18.70;87.80;;;;;;5062721;28;20118;-80
2023/09/19 02:17:39;;;;;;;;;;;18.60;87.80;;;;;;5066931;28;20093;-82
2023/09/19 02:20:10;;;;;;;;;;;18.60;87.80;;;;;;5063233;28;20121;-80
2023/09/19 02:22:38;;;;;;;;;;;18.60;87.80;;;;;;5065592;28;20100;-80
2023/09/19 02:25:05;;;;;;;;;;;18.60;87.90;;;;;;5067128;28;25084;-81
2023/09/19 02:27:31;;;;;;;;;;;18.60;87.90;;;;;;5062252;28;19971;-81
2023/09/19 02:29:58;;;;;;;;;;;18.60;87.90;;;;;;5042956;28;20197;-81
2023/09/19 02:32:25;;;;;;;;;;;18.70;88.00;;;;;;5065377;28;19965;-82
2023/09/19 02:34:53;;;;;;;;;;;18.60;88.00;;;;;;5060787;28;20636;-81
2023/09/19 02:37:24;;;;;;;;;;;18.60;88.10;;;;;;5076513;28;25089;-81
2023/09/19 02:39:51;;;;;;;;;;;18.60;88.10;;;;;;5062938;28;20068;-81
2023/09/19 02:42:18;;;;;;;;;;;18.60;88.00;;;;;;5066354;28;20006;-82
2023/09/19 02:44:46;;;;;;;;;;;18.60;88.10;;;;;;5056527;28;20121;-80
2023/09/19 02:47:14;;;;;;;;;;;18.60;88.10;;;;;;5060406;28;20148;-82
2023/09/19 02:49:42;;;;;;;;;;;18.60;88.20;;;;;;5061974;28;20482;-80
2023/09/19 02:52:11;;;;;;;;;;;18.60;88.20;;;;;;5061529;28;20305;-81
2023/09/19 02:54:39;;;;;;;;;;;18.60;88.20;;;;;;5047586;28;20080;-80
2023/09/19 02:57:07;;;;;;;;;;;18.60;88.30;;;;;;5060256;28;20154;-81
2023/09/19 02:59:36;;;;;;;;;;;18.60;88.30;;;;;;5054385;28;19970;-80
2023/09/19 03:02:04;;;;;;;;;;;18.60;88.40;;;;;;5060617;28;19972;-81
2023/09/19 03:04:33;;;;;;;;;;;18.60;88.50;;;;;;5042171;28;20081;-80
2023/09/19 03:07:01;;;;;;;;;;;18.60;88.60;;;;;;5023486;28;20133;-81
2023/09/19 03:09:28;;;;;;;;;;;18.60;88.60;;;;;;5060052;28;19989;-80
2023/09/19 03:11:56;;;;;;;;;;;18.60;88.70;;;;;;5061808;28;25071;-83
2023/09/19 03:14:23;;;;;;;;;;;18.60;88.70;;;;;;5058508;28;19967;-83
2023/09/19 03:16:52;;;;;;;;;;;18.60;88.70;;;;;;5053827;28;20153;-81
2023/09/19 03:19:20;;;;;;;;;;;18.60;88.70;;;;;;5073397;28;20197;-81
2023/09/19 03:21:49;;;;;;;;;;;18.60;88.80;;;;;;5054420;28;20725;-81
2023/09/19 03:24:16;;;;;;;;;;;18.50;88.80;;;;;;5056779;28;20346;-80
2023/09/19 03:26:42;;;;;;;;;;;18.50;88.90;;;;;;5041418;28;20076;-81
2023/09/19 03:29:11;;;;;;;;;;;18.50;88.90;;;;;;5001078;28;20568;-82
2023/09/19 03:31:38;;;;;;;;;;;18.50;88.90;;;;;;5003273;28;20555;-79
2023/09/19 03:34:05;;;;;;;;;;;18.50;88.90;;;;;;4995569;28;19985;-81
2023/09/19 03:36:31;;;;;;;;;;;18.50;88.90;;;;;;4974129;28;20093;-80
2023/09/19 03:38:59;;;;;;;;;;;18.50;89.00;;;;;;4981891;28;20117;-82
2023/09/19 03:41:26;;;;;;;;;;;18.50;89.10;;;;;;4973179;28;19976;-81
2023/09/19 03:43:52;;;;;;;;;;;18.50;89.00;;;;;;4985447;28;20499;-80
2023/09/19 03:46:21;;;;;;;;;;;18.50;89.10;;;;;;4991189;28;20107;-81
2023/09/19 03:48:47;;;;;;;;;;;18.50;89.10;;;;;;4999313;28;20101;-81
2023/09/19 03:51:14;;;;;;;;;;;18.50;89.20;;;;;;5002784;28;20098;-81
2023/09/19 03:53:41;;;;;;;;;;;18.40;89.10;;;;;;4997831;28;20098;-81
2023/09/19 03:56:08;;;;;;;;;;;18.40;89.10;;;;;;5001895;28;19965;-80
2023/09/19 03:58:38;;;;;;;;;;;18.40;89.20;;;;;;4998615;28;25120;-81
2023/09/19 04:01:06;;;;;;;;;;;18.40;89.20;;;;;;5012811;28;19970;-80
2023/09/19 04:03:45;;;;;;;;;;;18.40;89.20;;;;;;5012078;28;25080;-82
2023/09/19 04:06:12;;;;;;;;;;;18.40;89.20;;;;;;5013392;28;19976;-80
2023/09/19 04:08:39;;;;;;;;;;;18.40;89.20;;;;;;5024869;28;25075;-81
2023/09/19 04:11:06;;;;;;;;;;;18.40;89.20;;;;;;5007826;28;20310;-80
2023/09/19 04:13:32;;;;;;;;;;;18.40;89.30;;;;;;5007746;28;25217;-81
2023/09/19 04:15:59;;;;;;;;;;;18.40;89.30;;;;;;5007879;28;19968;-80
2023/09/19 04:18:26;;;;;;;;;;;18.40;89.30;;;;;;5021421;28;20217;-81
2023/09/19 04:20:55;;;;;;;;;;;18.40;89.40;;;;;;4990369;28;19964;-81
2023/09/19 04:23:47;;;;;;;;;;;18.40;89.30;;;;;;5019515;28;25178;-80
2023/09/19 04:26:16;;;;;;;;;;;18.40;89.30;;;;;;5007519;28;19979;-80
2023/09/19 04:28:43;;;;;;;;;;;18.30;89.30;;;;;;5006873;28;20656;-81
2023/09/19 04:31:11;;;;;;;;;;;18.30;89.30;;;;;;4992051;28;20189;-80
2023/09/19 04:33:38;;;;;;;;;;;18.30;89.20;;;;;;5005471;28;20162;-81
2023/09/19 04:36:07;;;;;;;;;;;18.30;89.30;;;;;;5017979;28;20196;-80
2023/09/19 04:38:34;;;;;;;;;;;18.30;89.20;;;;;;5000655;28;25071;-81
2023/09/19 04:41:01;;;;;;;;;;;18.30;89.30;;;;;;5009914;28;20090;-80
2023/09/19 04:43:28;;;;;;;;;;;18.30;89.30;;;;;;4990150;28;20139;-80
2023/09/19 04:45:55;;;;;;;;;;;18.30;89.30;;;;;;4972269;28;20114;-80
2023/09/19 04:48:23;;;;;;;;;;;18.30;89.30;;;;;;5009269;28;19969;-79
2023/09/19 04:50:50;;;;;;;;;;;18.30;89.50;;;;;;5015072;28;20110;-79
2023/09/19 04:53:20;;;;;;;;;;;18.30;89.40;;;;;;5030471;28;20082;-81
2023/09/19 04:55:50;;;;;;;;;;;18.30;89.40;;;;;;5018252;28;20093;-80
2023/09/19 04:58:17;;;;;;;;;;;18.30;89.40;;;;;;5020552;28;25071;-80
2023/09/19 05:00:44;;;;;;;;;;;18.30;89.40;;;;;;5018009;28;19972;-80
2023/09/19 05:03:11;;;;;;;;;;;18.30;89.50;;;;;;5021072;28;20323;-81
2023/09/19 05:05:41;;;;;;;;;;;18.20;89.40;;;;;;5006062;28;20232;-83
2023/09/19 05:08:09;;;;;;;;;;;18.20;89.40;;;;;;5017935;28;20492;-80
2023/09/19 05:10:38;;;;;;;;;;;18.30;89.50;;;;;;5000823;28;25082;-83
2023/09/19 05:13:07;;;;;;;;;;;18.30;89.60;;;;;;5015271;28;20497;-82
2023/09/19 05:15:35;;;;;;;;;;;18.20;89.50;;;;;;5019509;28;19973;-81
2023/09/19 05:18:10;;;;;;;;;;;18.20;89.50;;;;;;5019692;28;20109;-82
2023/09/19 05:20:39;;;;;;;;;;;18.30;89.70;;;;;;5000771;28;25119;-82
2023/09/19 05:23:07;;;;;;;;;;;18.20;89.70;;;;;;5020840;28;19966;-82
2023/09/19 05:25:37;;;;;;;;;;;18.20;89.70;;;;;;5003040;28;19970;-83
2023/09/19 05:28:05;;;;;;;;;;;18.20;89.90;;;;;;5017682;28;20731;-82
2023/09/19 05:30:33;;;;;;;;;;;18.20;89.80;;;;;;5020566;28;20026;-83
2023/09/19 05:33:00;;;;;;;;;;;18.20;89.90;;;;;;5017437;28;20117;-83
2023/09/19 05:35:27;;;;;;;;;;;18.20;89.90;;;;;;5020989;28;20103;-82
2023/09/19 05:37:55;;;;;;;;;;;18.20;89.90;;;;;;5016935;28;19976;-83
2023/09/19 05:40:23;;;;;;;;;;;18.20;90.00;;;;;;5016435;28;20012;-82
2023/09/19 05:42:50;;;;;;;;;;;18.20;90.00;;;;;;5000969;28;20114;-82
2023/09/19 05:45:22;;;;;;;;;;;18.20;90.00;;;;;;5013434;28;20009;-85
2023/09/19 05:47:49;;;;;;;;;;;18.20;90.00;;;;;;5016332;28;20076;-77
2023/09/19 05:50:16;;;;;;;;;;;18.20;90.00;;;;;;5015556;28;20111;-78
2023/09/19 05:52:44;;;;;;;;;;;18.20;90.00;;;;;;5016046;28;20427;-78
2023/09/19 05:55:10;;;;;;;;;;;18.20;90.00;;;;;;5016542;28;19991;-78
2023/09/19 05:57:38;;;;;;;;;;;18.20;90.00;;;;;;5010415;28;19967;-77
2023/09/19 06:00:08;;;;;;;;;;;18.10;90.00;;;;;;5017210;28;20076;-78
2023/09/19 06:02:37;;;;;;;;;;;18.10;90.00;;;;;;5006419;28;20131;-79
2023/09/19 06:05:06;;;;;;;;;;;18.20;90.10;;;;;;4997608;28;20111;-78
2023/09/19 06:07:36;;;;;;;;;;;18.10;90.20;;;;;;4997089;28;20157;-78
2023/09/19 06:10:03;;;;;;;;;;;18.10;90.30;;;;;;5007323;28;25080;-77
2023/09/19 06:12:33;;;;;;;;;;;18.10;90.30;;;;;;5010842;28;20454;-78
2023/09/19 06:15:00;;;;;;;;;;;18.10;90.40;;;;;;5011042;28;19968;-78
2023/09/19 06:17:27;;;;;;;;;;;18.10;90.40;;;;;;4990051;28;20478;-78
2023/09/19 06:19:55;;;;;;;;;;;18.10;90.40;;;;;;4990045;28;20178;-77
2023/09/19 06:22:22;;;;;;;;;;;18.10;90.40;;;;;;4989007;28;20192;-77
2023/09/19 06:24:49;;;;;;;;;;;18.10;90.40;;;;;;5009844;28;20744;-77
2023/09/19 06:27:15;;;;;;;;;;;18.10;90.40;;;;;;5005233;28;20125;-76
2023/09/19 06:29:42;;;;;;;;;;;18.10;90.40;;;;;;5009132;28;20133;-77
2023/09/19 06:32:10;;;;;;;;;;;18.10;90.40;;;;;;4991749;28;19971;-78
2023/09/19 06:34:37;;;;;;;;;;;18.10;90.40;;;;;;5009916;28;20105;-78
2023/09/19 06:37:06;;;;;;;;;;;18.10;90.40;;;;;;5005389;28;20088;-78
2023/09/19 06:39:32;;;;;;;;;;;18.10;90.40;;;;;;5009989;28;20155;-78
2023/09/19 06:42:01;;;;;;;;;;;18.10;90.40;;;;;;5009110;28;25046;-79
2023/09/19 06:44:29;;;;;;;;;;;18.10;90.40;;;;;;5017587;28;19979;-79
2023/09/19 06:46:56;;;;;;;;;;;18.10;90.40;;;;;;5019444;28;20161;-78
2023/09/19 06:49:22;;;;;;;;;;;18.10;90.40;;;;;;5014525;28;20095;-78
2023/09/19 06:51:49;;;;;;;;;;;18.10;90.30;;;;;;5018924;28;20721;-78
2023/09/19 06:54:17;;;;;;;;;;;18.10;90.30;;;;;;5016575;28;19984;-77
2023/09/19 06:56:44;;;;;;;;;;;18.10;90.40;;;;;;4993745;28;20574;-77
2023/09/19 06:59:14;;;;;;;;;;;18.00;90.30;;;;;;5014269;28;20110;-78
2023/09/19 07:01:41;;;;;;;;;;;18.10;90.30;;;;;;5013108;28;25138;-79
2023/09/19 07:04:08;;;;;;;;;;;18.00;90.30;;;;;;5016235;28;20684;-77
2023/09/19 07:06:36;;;;;;;;;;;18.00;90.20;;;;;;5017402;28;20117;-81
2023/09/19 07:09:04;;;;;;;;;;;18.00;90.20;;;;;;5018136;28;20771;-83
2023/09/19 07:11:33;;;;;;;;;;;18.00;90.20;;;;;;5001784;28;20080;-82
2023/09/19 07:14:01;;;;;;;;;;;18.00;90.10;;;;;;5002193;28;20097;-81
2023/09/19 07:16:29;;;;;;;;;;;18.10;90.10;;;;;;5019000;28;20188;-80
2023/09/19 07:18:56;;;;;;;;;;;18.00;90.10;;;;;;5020088;28;19957;-83
2023/09/19 07:21:23;;;;;;;;;;;18.00;90.10;;;;;;5001256;28;20124;-82
2023/09/19 07:23:49;;;;;;;;;;;17.90;90.00;;;;;;5020469;28;20683;-84
2023/09/19 07:26:20;;;;;;;;;;;18.00;90.00;;;;;;5019632;28;19985;-81
2023/09/19 07:28:48;;;;;;;;;;;18.00;90.00;;;;;;5020211;28;20053;-80
2023/09/19 07:31:15;;;;;;;;;;;18.00;90.00;;;;;;5014525;28;20662;-82
2023/09/19 07:33:42;;;;;;;;;;;18.00;89.80;;;;;;5003070;28;20632;-83
2023/09/19 07:36:13;;;;;;;;;;;18.00;89.80;;;;;;5036759;28;20208;-80
2023/09/19 07:38:40;;;;;;;;;;;18.00;89.80;;;;;;5004330;28;20188;-80
2023/09/19 07:41:06;;;;;;;;;;;18.00;89.70;;;;;;5038162;28;20112;-82
2023/09/19 07:43:33;;;;;;;;;;;18.00;89.60;;;;;;5021767;28;19960;-84
2023/09/19 07:46:10;;;;;;;;;;;18.00;89.60;;;;;;5019934;28;19987;-82
2023/09/19 07:48:38;;;;;;;;;;;18.00;89.30;;;;;;5004498;28;20401;-83
2023/09/19 07:51:04;;;;;;;;;;;18.00;89.30;;;;;;5020253;28;20108;-82
2023/09/19 07:53:34;;;;;;;;;;;18.00;89.30;;;;;;5023885;28;25134;-82
2023/09/19 07:56:04;;;;;;;;;;;18.00;89.10;;;;;;5039783;28;19962;-82
2023/09/19 07:58:33;;;;;;;;;;;18.00;89.10;;;;;;5021011;28;20122;-82
2023/09/19 08:01:04;;;;;;;;;;;18.10;89.10;;;;;;5020727;28;20808;-80
2023/09/19 08:03:31;;;;;;;;;;;18.00;88.80;;;;;;5020075;28;20258;-84
2023/09/19 08:05:59;;;;;;;;;;;18.00;88.70;;;;;;5017557;28;20093;-82
2023/09/19 08:08:26;;;;;;;;;;;18.10;88.60;;;;;;5005293;28;20125;-81
2023/09/19 08:11:01;;;;;;;;;;;18.10;88.50;;;;;;5016426;28;20168;-84
2023/09/19 08:13:27;;;;;;;;;;;18.10;88.50;;;;;;5019806;28;20173;-79
2023/09/19 08:15:54;;;;;;;;;;;18.10;88.40;;;;;;5026055;28;20209;-82
2023/09/19 08:18:23;;;;;;;;;;;18.10;88.30;;;;;;5023405;28;19959;-83
2023/09/19 08:20:50;;;;;;;;;;;18.10;88.30;;;;;;5021771;28;20650;-83
2023/09/19 08:23:18;;;;;;;;;;;18.10;88.10;;;;;;5023357;28;19969;-82
2023/09/19 08:25:45;;;;;;;;;;;18.20;88.00;;;;;;5024466;28;20126;-81
2023/09/19 08:28:13;;;;;;;;;;;18.20;87.80;;;;;;5025025;28;20136;-81
2023/09/19 08:30:41;;;;;;;;;;;18.20;87.60;;;;;;5017778;28;20124;-82
2023/09/19 08:33:08;;;;;;;;;;;18.20;87.20;;;;;;5020033;28;19965;-82
2023/09/19 08:35:37;;;;;;;;;;;18.20;87.10;;;;;;5005785;28;21015;-81
2023/09/19 08:38:05;;;;;;;;;;;18.20;86.90;;;;;;5021725;28;20107;-81
2023/09/19 08:40:33;;;;;;;;;;;18.30;86.80;;;;;;5020111;28;20251;-82
2023/09/19 08:43:00;;;;;;;;;;;18.30;86.40;;;;;;5021210;28;20006;-81
2023/09/19 08:45:28;;;;;;;;;;;18.30;86.10;;;;;;5021122;28;20054;-81
2023/09/19 08:47:59;;;;;;;;;;;18.30;86.00;;;;;;4998170;28;25126;-82
2023/09/19 08:50:28;;;;;;;;;;;18.30;85.60;;;;;;5020168;28;20069;-83
2023/09/19 08:52:56;;;;;;;;;;;18.30;85.10;;;;;;4984020;28;20102;-80
2023/09/19 08:55:27;;;;;;;;;;;18.30;85.00;;;;;;5018853;28;20545;-83
2023/09/19 08:57:59;;;;;;;;;;;18.40;84.90;;;;;;5024445;28;20325;-84
2023/09/19 09:00:27;;;;;;;;;;;18.40;85.40;;;;;;5017289;28;20075;-83
2023/09/19 09:02:55;;;;;;;;;;;18.40;84.30;;;;;;5035953;28;20107;-83
2023/09/19 09:05:23;;;;;;;;;;;18.50;83.90;;;;;;5002144;28;20407;-82
2023/09/19 09:07:51;;;;;;;;;;;18.50;83.50;;;;;;5003002;28;19976;-82
2023/09/19 09:10:22;;;;;;;;;;;18.50;83.40;;;;;;5000707;28;20641;-80
2023/09/19 09:12:49;;;;;;;;;;;18.50;82.90;;;;;;5001492;28;25054;-82
2023/09/19 09:15:17;;;;;;;;;;;18.50;82.80;;;;;;5021461;28;19971;-84
2023/09/19 09:17:44;;;;;;;;;;;18.60;82.70;;;;;;5001960;28;20008;-82
2023/09/19 09:20:11;;;;;;;;;;;18.60;82.60;;;;;;5018358;28;20122;-82
2023/09/19 09:22:39;;;;;;;;;;;18.60;82.50;;;;;;5019418;28;19974;-82
2023/09/19 09:25:06;;;;;;;;;;;18.60;81.90;;;;;;5017763;28;21851;-82
2023/09/19 09:27:35;;;;;;;;;;;18.60;81.80;;;;;;5018681;28;20062;-84
2023/09/19 09:30:01;;;;;;;;;;;18.60;81.70;;;;;;5006214;28;20150;-82
2023/09/19 09:32:29;;;;;;;;;;;18.70;81.40;;;;;;5023632;28;20010;-82
2023/09/19 09:34:57;;;;;;;;;;;18.70;81.20;;;;;;5032950;28;20094;-83
2023/09/19 09:37:24;;;;;;;;;;;18.70;80.90;;;;;;5021755;28;20135;-81
2023/09/19 09:39:56;;;;;;;;;;;18.70;81.00;;;;;;5019195;28;25058;-82
2023/09/19 09:42:35;;;;;;;;;;;18.80;80.80;;;;;;4998752;28;25149;-82
2023/09/19 09:45:28;;;;;;;;;;;18.80;80.40;;;;;;5017609;28;25156;-81
2023/09/19 09:47:56;;;;;;;;;;;18.80;80.10;;;;;;5025741;28;20176;-82
2023/09/19 09:50:29;;;;;;;;;;;18.90;80.00;;;;;;5020402;28;25161;-84
2023/09/19 09:53:00;;;;;;;;;;;18.90;79.20;;;;;;5023638;28;25178;-83
2023/09/19 09:55:27;;;;;;;;;;;19.00;79.10;;;;;;5024348;28;20181;-83
2023/09/19 09:58:16;;;;;;;;;;;19.00;79.00;;;;;;5020869;28;25139;-83
2023/09/19 10:01:02;;;;;;;;;;;19.10;78.20;;;;;;5022486;28;25131;-83
2023/09/19 10:03:34;;;;;;;;;;;19.10;77.60;;;;;;5023418;28;20153;-82
2023/09/19 10:06:02;;;;;;;;;;;19.20;77.20;;;;;;5024252;28;25097;-81
2023/09/19 10:08:31;;;;;;;;;;;19.20;76.90;;;;;;5002424;28;25125;-83
2023/09/19 10:11:05;;;;;;;;;;;19.30;76.80;;;;;;5021330;28;20130;-82
2023/09/19 10:13:33;;;;;;;;;;;19.40;76.70;;;;;;5002554;28;20176;-79
2023/09/19 10:16:06;;;;;;;;;;;19.40;76.30;;;;;;5024276;28;25078;-82
2023/09/19 10:18:36;;;;;;;;;;;19.40;75.60;;;;;;4997595;28;25061;-82
2023/09/19 10:21:06;;;;;;;;;;;19.50;75.60;;;;;;5025710;28;20147;-83
2023/09/19 10:23:34;;;;;;;;;;;19.50;75.00;;;;;;5019053;28;20135;-84
2023/09/19 10:26:02;;;;;;;;;;;19.60;74.70;;;;;;5016051;28;25070;-85
2023/09/19 10:28:30;;;;;;;;;;;19.60;75.60;;;;;;5017196;28;25099;-81
2023/09/19 10:30:58;;;;;;;;;;;19.70;74.70;;;;;;5020175;28;20004;-81
2023/09/19 10:33:26;;;;;;;;;;;19.80;74.70;;;;;;5019048;28;25079;-81
2023/09/19 10:35:55;;;;;;;;;;;19.80;74.80;;;;;;5020720;28;25096;-85
2023/09/19 10:38:23;;;;;;;;;;;19.80;74.80;;;;;;5000333;28;19972;-81
2023/09/19 10:40:52;;;;;;;;;;;19.90;74.90;;;;;;5019473;28;20114;-81
2023/09/19 10:43:20;;;;;;;;;;;19.90;74.70;;;;;;5019640;28;20105;-85
2023/09/19 10:45:49;;;;;;;;;;;20.00;74.90;;;;;;5017805;28;20115;-82
2023/09/19 10:48:19;;;;;;;;;;;20.10;73.30;;;;;;5002883;28;20605;-83
2023/09/19 10:50:50;;;;;;;;;;;20.10;73.10;;;;;;5014961;28;20122;-80
2023/09/19 10:53:17;;;;;;;;;;;20.10;73.50;;;;;;5017122;28;20750;-81
2023/09/19 10:55:51;;;;;;;;;;;20.20;73.30;;;;;;5018528;28;21468;-82
2023/09/19 10:58:28;;;;;;;;;;;20.20;72.90;;;;;;5011979;28;25057;-81
2023/09/19 11:00:56;;;;;;;;;;;20.30;72.80;;;;;;5017664;28;25167;-83
2023/09/19 11:03:29;;;;;;;;;;;20.30;72.70;;;;;;5021981;28;25103;-79
2023/09/19 11:06:13;;;;;;;;;;;20.40;72.20;;;;;;5019485;28;25058;-82
2023/09/19 11:08:56;;;;;;;;;;;20.40;71.10;;;;;;5020245;28;20173;-82
2023/09/19 11:11:42;;;;;;;;;;;20.50;70.90;;;;;;5021284;28;25106;-81
2023/09/19 11:14:16;;;;;;;;;;;20.50;70.10;;;;;;5020746;28;20149;-79
2023/09/19 11:16:59;;;;;;;;;;;20.60;70.00;;;;;;5025518;28;20752;-81
2023/09/19 11:19:48;;;;;;;;;;;20.70;69.80;;;;;;4997728;28;20327;-82
2023/09/19 11:22:16;;;;;;;;;;;20.70;70.40;;;;;;5012952;28;20224;-81
2023/09/19 11:24:42;;;;;;;;;;;20.70;69.80;;;;;;5020796;28;20183;-82
2023/09/19 11:27:13;;;;;;;;;;;20.80;69.20;;;;;;5023184;28;20152;-81
2023/09/19 11:29:43;;;;;;;;;;;20.80;69.30;;;;;;5022218;28;20189;-80
2023/09/19 11:32:10;;;;;;;;;;;20.90;69.00;;;;;;5019288;28;25055;-81
2023/09/19 11:34:45;;;;;;;;;;;20.90;70.30;;;;;;5003502;28;20187;-81
2023/09/19 11:37:36;;;;;;;;;;;21.00;68.80;;;;;;5006977;28;20189;-82
2023/09/19 11:40:15;;;;;;;;;;;21.00;68.70;;;;;;5022168;28;20649;-81
2023/09/19 11:42:43;;;;;;;;;;;21.10;69.20;;;;;;5025185;28;20541;-81
2023/09/19 11:45:30;;;;;;;;;;;21.00;68.70;;;;;;5025434;28;20236;-82
2023/09/19 11:47:57;;;;;;;;;;;21.10;68.70;;;;;;5027974;28;20184;-79
2023/09/19 11:50:25;;;;;;;;;;;21.10;69.30;;;;;;5021367;28;20606;-81
2023/09/19 11:52:52;;;;;;;;;;;21.20;68.60;;;;;;5014111;28;25077;-78
2023/09/19 11:55:21;;;;;;;;;;;21.30;67.70;;;;;;5018254;28;20203;-80
2023/09/19 11:57:50;;;;;;;;;;;21.30;68.30;;;;;;4982193;28;25182;-79
2023/09/19 12:00:19;;;;;;;;;;;21.40;67.50;;;;;;5019187;28;20214;-80
2023/09/19 12:02:48;;;;;;;;;;;21.40;68.20;;;;;;5024981;28;20915;-80
2023/09/19 12:05:15;;;;;;;;;;;21.50;67.50;;;;;;5024445;28;20178;-80
2023/09/19 12:07:48;;;;;;;;;;;21.60;67.60;;;;;;5015048;28;25100;-81
2023/09/19 12:10:15;;;;;;;;;;;21.70;66.20;;;;;;4986584;28;20186;-81
2023/09/19 12:12:48;;;;;;;;;;;21.70;67.00;;;;;;5020689;28;20165;-83
2023/09/19 12:15:14;;;;;;;;;;;21.70;67.00;;;;;;5016709;28;20194;-78
2023/09/19 12:17:43;;;;;;;;;;;21.80;66.90;;;;;;5020658;28;20255;-81
2023/09/19 12:20:12;;;;;;;;;;;21.90;66.40;;;;;;5021037;28;25164;-81
2023/09/19 12:22:43;;;;;;;;;;;21.90;65.50;;;;;;5005791;28;25057;-81
2023/09/19 12:25:11;;;;;;;;;;;21.90;65.70;;;;;;5005272;28;25089;-79
2023/09/19 12:27:46;;;;;;;;;;;22.00;65.00;;;;;;5026682;28;20190;-79
2023/09/19 12:30:17;;;;;;;;;;;22.00;64.60;;;;;;5025716;28;20327;-83
2023/09/19 12:32:44;;;;;;;;;;;22.10;65.00;;;;;;5010275;28;20171;-76
2023/09/19 12:35:28;;;;;;;;;;;22.10;63.80;;;;;;5024241;28;20703;-77
2023/09/19 12:37:55;;;;;;;;;;;22.20;64.40;;;;;;5042133;28;20227;-81
2023/09/19 12:40:27;;;;;;;;;;;22.20;63.30;;;;;;5026453;28;20285;-80
2023/09/19 12:42:56;;;;;;;;;;;22.20;63.90;;;;;;5022516;28;20172;-80
2023/09/19 12:45:22;;;;;;;;;;;22.30;65.00;;;;;;5022627;28;25065;-79
2023/09/19 12:48:08;;;;;;;;;;;22.30;63.80;;;;;;5005969;28;20651;-83
2023/09/19 12:50:34;;;;;;;;;;;22.40;63.00;;;;;;5022470;28;20214;-84
2023/09/19 12:53:08;;;;;;;;;;;22.40;63.80;;;;;;5025004;28;20857;-83
2023/09/19 12:55:38;;;;;;;;;;;22.40;62.40;;;;;;5022530;28;20302;-82
2023/09/19 12:58:12;;;;;;;;;;;22.40;63.50;;;;;;5024628;28;25075;-81
2023/09/19 13:00:39;;;;;;;;;;;22.80;58.80;;;;;;5027628;28;20129;-82
2023/09/19 13:03:24;;;;;;;;;;;23.50;55.90;;;;;;5020627;28;19974;-75
2023/09/19 13:05:55;;;;;;;;;;;23.60;56.80;;;;;;5057101;28;25076;-74
2023/09/19 13:08:23;;;;;;;;;;;23.70;57.30;;;;;;5063377;28;19969;-75
2023/09/19 13:11:12;;;;;;;;;;;23.60;57.00;;;;;;5062716;28;20099;-76
2023/09/19 13:14:11;;;;;;;;;;;23.60;58.50;;;;;;5068747;28;20677;-75
2023/09/19 13:16:53;;;;;;;;;;;23.50;58.30;;;;;;5059024;28;20618;-76
2023/09/19 13:19:35;;;;;;;;;;;23.40;58.90;;;;;;5068045;28;20069;-76
2023/09/19 13:22:02;;;;;;;;;;;23.40;58.00;;;;;;5062136;28;20166;-76
2023/09/19 13:24:30;;;;;;;;;;;23.40;59.40;;;;;;5062938;28;19970;-76
2023/09/19 13:26:57;;;;;;;;;;;23.40;58.30;;;;;;5043793;28;19985;-77
2023/09/19 13:29:25;;;;;;;;;;;23.40;58.50;;;;;;5065025;28;20280;-76
2023/09/19 13:31:54;;;;;;;;;;;23.40;58.50;;;;;;5061350;28;25145;-77
2023/09/19 13:34:20;;;;;;;;;;;23.40;58.70;;;;;;5067052;28;19957;-76
2023/09/19 13:36:48;;;;;;;;;;;23.40;60.30;;;;;;5060147;28;20090;-75
2023/09/19 13:39:15;;;;;;;;;;;23.40;59.30;;;;;;5065185;28;19977;-74
2023/09/19 13:41:42;;;;;;;;;;;23.40;60.80;;;;;;5028925;28;20538;-77
2023/09/19 13:44:10;;;;;;;;;;;23.40;59.40;;;;;;5064646;28;20132;-76
2023/09/19 13:46:38;;;;;;;;;;;23.30;58.90;;;;;;5066507;28;20675;-78
2023/09/19 13:49:05;;;;;;;;;;;23.40;60.10;;;;;;5066054;28;25075;-77
2023/09/19 13:51:31;;;;;;;;;;;23.40;59.00;;;;;;5048030;28;20001;-78
2023/09/19 13:54:00;;;;;;;;;;;23.40;58.40;;;;;;5068605;28;25080;-75
2023/09/19 13:56:27;;;;;;;;;;;23.30;60.00;;;;;;5046917;28;20308;-77
2023/09/19 13:58:54;;;;;;;;;;;23.30;58.80;;;;;;5078118;28;20011;-77
2023/09/19 14:01:27;;;;;;;;;;;23.30;59.40;;;;;;5062464;28;20090;-77
2023/09/19 14:03:59;;;;;;;;;;;23.30;59.90;;;;;;5065948;28;20104;-78
2023/09/19 14:06:25;;;;;;;;;;;23.30;60.50;;;;;;5069901;28;20101;-77
2023/09/19 14:08:52;;;;;;;;;;;23.30;60.90;;;;;;5078657;28;20126;-78
2023/09/19 14:11:18;;;;;;;;;;;23.30;61.50;;;;;;5064012;28;19981;-78
2023/09/19 14:13:48;;;;;;;;;;;23.20;60.70;;;;;;5068771;28;20169;-78
2023/09/19 14:16:14;;;;;;;;;;;23.20;62.10;;;;;;5063002;28;19980;-77
2023/09/19 14:18:41;;;;;;;;;;;23.20;61.90;;;;;;5067309;28;20592;-78
2023/09/19 14:21:11;;;;;;;;;;;23.20;61.40;;;;;;5066320;28;19974;-77
2023/09/19 14:23:37;;;;;;;;;;;23.10;61.60;;;;;;5053235;28;25079;-78
2023/09/19 14:26:05;;;;;;;;;;;23.20;60.40;;;;;;5066512;28;19963;-78
2023/09/19 14:28:33;;;;;;;;;;;23.20;59.60;;;;;;5068118;28;25076;-77